sensor_id;sensor_type;location;lat;lon;timestamp;P1;durP1;ratioP1;P2;durP2;ratioP2
19879;SDS011;10102;50.828;4.416;2023-07-31T00:00:38;18.05;;;5.40;;
19879;SDS011;10102;50.828;4.416;2023-07-31T00:03:03;11.80;;;4.82;;
19879;SDS011;10102;50.828;4.416;2023-07-31T00:05:29;16.02;;;4.85;;
19879;SDS011;10102;50.828;4.416;2023-07-31T00:07:55;21.33;;;4.90;;
19879;SDS011;10102;50.828;4.416;2023-07-31T00:10:20;17.80;;;5.82;;
19879;SDS011;10102;50.828;4.416;2023-07-31T00:12:46;16.77;;;4.72;;
19879;SDS011;10102;50.828;4.416;2023-07-31T00:15:13;14.80;;;4.15;;
19879;SDS011;10102;50.828;4.416;2023-07-31T00:17:39;13.55;;;4.85;;
19879;SDS011;10102;50.828;4.416;2023-07-31T00:20:05;14.77;;;4.65;;
19879;SDS011;10102;50.828;4.416;2023-07-31T00:22:31;17.73;;;5.90;;
19879;SDS011;10102;50.828;4.416;2023-07-31T00:24:57;12.00;;;5.28;;
19879;SDS011;10102;50.828;4.416;2023-07-31T00:27:23;20.90;;;5.38;;
19879;SDS011;10102;50.828;4.416;2023-07-31T00:29:49;23.75;;;5.63;;
19879;SDS011;10102;50.828;4.416;2023-07-31T00:32:14;11.52;;;4.60;;
19879;SDS011;10102;50.828;4.416;2023-07-31T00:34:40;16.38;;;4.75;;
19879;SDS011;10102;50.828;4.416;2023-07-31T00:37:06;13.07;;;5.03;;
19879;SDS011;10102;50.828;4.416;2023-07-31T00:39:33;15.65;;;5.00;;
19879;SDS011;10102;50.828;4.416;2023-07-31T00:41:59;14.98;;;4.97;;
19879;SDS011;10102;50.828;4.416;2023-07-31T00:44:25;16.30;;;4.57;;
19879;SDS011;10102;50.828;4.416;2023-07-31T00:46:51;12.65;;;4.43;;
19879;SDS011;10102;50.828;4.416;2023-07-31T00:49:17;16.05;;;4.82;;
19879;SDS011;10102;50.828;4.416;2023-07-31T00:51:43;12.13;;;4.57;;
19879;SDS011;10102;50.828;4.416;2023-07-31T00:54:09;14.05;;;4.88;;
19879;SDS011;10102;50.828;4.416;2023-07-31T00:56:35;16.95;;;4.90;;
19879;SDS011;10102;50.828;4.416;2023-07-31T00:59:02;11.60;;;4.55;;
19879;SDS011;10102;50.828;4.416;2023-07-31T01:01:27;16.13;;;5.03;;
19879;SDS011;10102;50.828;4.416;2023-07-31T01:03:53;15.48;;;5.13;;
19879;SDS011;10102;50.828;4.416;2023-07-31T01:09:35;14.52;;;5.20;;
19879;SDS011;10102;50.828;4.416;2023-07-31T01:19:06;15.20;;;4.80;;
19879;SDS011;10102;50.828;4.416;2023-07-31T01:26:30;12.38;;;4.88;;
19879;SDS011;10102;50.828;4.416;2023-07-31T01:31:32;13.90;;;5.05;;
19879;SDS011;10102;50.828;4.416;2023-07-31T01:34:00;17.83;;;5.13;;
19879;SDS011;10102;50.828;4.416;2023-07-31T01:36:27;15.35;;;4.90;;
19879;SDS011;10102;50.828;4.416;2023-07-31T01:38:57;12.23;;;4.97;;
19879;SDS011;10102;50.828;4.416;2023-07-31T01:41:24;16.88;;;5.13;;
19879;SDS011;10102;50.828;4.416;2023-07-31T01:43:50;14.35;;;5.25;;
19879;SDS011;10102;50.828;4.416;2023-07-31T01:46:15;12.75;;;4.88;;
19879;SDS011;10102;50.828;4.416;2023-07-31T01:48:41;15.80;;;5.50;;
19879;SDS011;10102;50.828;4.416;2023-07-31T01:51:07;16.27;;;5.47;;
19879;SDS011;10102;50.828;4.416;2023-07-31T01:53:32;12.35;;;5.95;;
19879;SDS011;10102;50.828;4.416;2023-07-31T01:55:58;15.88;;;5.10;;
19879;SDS011;10102;50.828;4.416;2023-07-31T01:58:24;14.05;;;6.30;;
19879;SDS011;10102;50.828;4.416;2023-07-31T02:00:50;18.75;;;5.85;;
19879;SDS011;10102;50.828;4.416;2023-07-31T02:03:15;13.30;;;4.82;;
19879;SDS011;10102;50.828;4.416;2023-07-31T02:05:48;13.15;;;5.72;;
19879;SDS011;10102;50.828;4.416;2023-07-31T02:08:14;13.98;;;5.40;;
19879;SDS011;10102;50.828;4.416;2023-07-31T02:10:40;14.35;;;5.63;;
19879;SDS011;10102;50.828;4.416;2023-07-31T02:13:06;11.32;;;5.30;;
19879;SDS011;10102;50.828;4.416;2023-07-31T02:15:32;12.95;;;5.38;;
19879;SDS011;10102;50.828;4.416;2023-07-31T02:17:58;16.42;;;5.35;;
19879;SDS011;10102;50.828;4.416;2023-07-31T02:20:23;15.40;;;5.18;;
19879;SDS011;10102;50.828;4.416;2023-07-31T02:22:49;11.20;;;5.25;;
19879;SDS011;10102;50.828;4.416;2023-07-31T02:25:15;16.77;;;6.30;;
19879;SDS011;10102;50.828;4.416;2023-07-31T02:27:41;11.65;;;5.32;;
19879;SDS011;10102;50.828;4.416;2023-07-31T02:30:07;12.20;;;5.55;;
19879;SDS011;10102;50.828;4.416;2023-07-31T02:32:33;12.93;;;5.10;;
19879;SDS011;10102;50.828;4.416;2023-07-31T02:34:58;12.38;;;5.05;;
19879;SDS011;10102;50.828;4.416;2023-07-31T02:37:24;16.45;;;5.30;;
19879;SDS011;10102;50.828;4.416;2023-07-31T02:39:50;12.93;;;4.65;;
19879;SDS011;10102;50.828;4.416;2023-07-31T02:42:16;13.65;;;5.22;;
19879;SDS011;10102;50.828;4.416;2023-07-31T02:44:42;10.60;;;4.97;;
19879;SDS011;10102;50.828;4.416;2023-07-31T02:47:07;10.43;;;4.18;;
19879;SDS011;10102;50.828;4.416;2023-07-31T02:49:33;7.63;;;4.18;;
19879;SDS011;10102;50.828;4.416;2023-07-31T02:51:59;8.32;;;4.60;;
19879;SDS011;10102;50.828;4.416;2023-07-31T02:54:24;15.77;;;4.78;;
19879;SDS011;10102;50.828;4.416;2023-07-31T02:56:50;8.20;;;4.28;;
19879;SDS011;10102;50.828;4.416;2023-07-31T02:59:16;11.18;;;4.18;;
19879;SDS011;10102;50.828;4.416;2023-07-31T03:01:42;13.30;;;4.78;;
19879;SDS011;10102;50.828;4.416;2023-07-31T03:04:08;9.73;;;4.20;;
19879;SDS011;10102;50.828;4.416;2023-07-31T03:06:34;9.32;;;4.03;;
19879;SDS011;10102;50.828;4.416;2023-07-31T03:08:59;7.13;;;4.03;;
19879;SDS011;10102;50.828;4.416;2023-07-31T03:11:25;12.50;;;4.75;;
19879;SDS011;10102;50.828;4.416;2023-07-31T03:13:51;10.88;;;4.85;;
19879;SDS011;10102;50.828;4.416;2023-07-31T03:16:17;7.38;;;4.00;;
19879;SDS011;10102;50.828;4.416;2023-07-31T03:18:42;8.18;;;3.80;;
19879;SDS011;10102;50.828;4.416;2023-07-31T03:21:08;7.63;;;4.50;;
19879;SDS011;10102;50.828;4.416;2023-07-31T03:23:34;18.60;;;4.60;;
19879;SDS011;10102;50.828;4.416;2023-07-31T03:26:00;11.13;;;4.45;;
19879;SDS011;10102;50.828;4.416;2023-07-31T03:28:28;10.25;;;4.30;;
19879;SDS011;10102;50.828;4.416;2023-07-31T03:30:55;9.52;;;4.78;;
19879;SDS011;10102;50.828;4.416;2023-07-31T03:33:21;8.98;;;4.13;;
19879;SDS011;10102;50.828;4.416;2023-07-31T03:35:46;10.23;;;4.82;;
19879;SDS011;10102;50.828;4.416;2023-07-31T03:38:12;9.00;;;3.90;;
19879;SDS011;10102;50.828;4.416;2023-07-31T03:40:38;9.77;;;5.15;;
19879;SDS011;10102;50.828;4.416;2023-07-31T03:43:04;12.40;;;5.43;;
19879;SDS011;10102;50.828;4.416;2023-07-31T03:45:30;12.90;;;4.82;;
19879;SDS011;10102;50.828;4.416;2023-07-31T03:47:56;8.48;;;4.65;;
19879;SDS011;10102;50.828;4.416;2023-07-31T03:50:22;9.48;;;4.45;;
19879;SDS011;10102;50.828;4.416;2023-07-31T03:52:47;12.90;;;4.70;;
19879;SDS011;10102;50.828;4.416;2023-07-31T03:55:13;14.27;;;5.57;;
19879;SDS011;10102;50.828;4.416;2023-07-31T03:57:39;13.38;;;5.28;;
19879;SDS011;10102;50.828;4.416;2023-07-31T04:00:05;11.00;;;4.85;;
19879;SDS011;10102;50.828;4.416;2023-07-31T04:02:31;11.88;;;5.53;;
19879;SDS011;10102;50.828;4.416;2023-07-31T04:04:56;7.95;;;5.15;;
19879;SDS011;10102;50.828;4.416;2023-07-31T04:07:22;13.32;;;5.32;;
19879;SDS011;10102;50.828;4.416;2023-07-31T04:09:48;17.23;;;5.28;;
19879;SDS011;10102;50.828;4.416;2023-07-31T04:12:13;14.93;;;5.90;;
19879;SDS011;10102;50.828;4.416;2023-07-31T04:14:39;19.23;;;5.85;;
19879;SDS011;10102;50.828;4.416;2023-07-31T04:17:04;9.70;;;5.35;;
19879;SDS011;10102;50.828;4.416;2023-07-31T04:19:30;12.40;;;4.93;;
19879;SDS011;10102;50.828;4.416;2023-07-31T04:21:56;21.55;;;5.07;;
19879;SDS011;10102;50.828;4.416;2023-07-31T04:24:21;17.00;;;5.90;;
19879;SDS011;10102;50.828;4.416;2023-07-31T04:26:52;18.40;;;5.75;;
19879;SDS011;10102;50.828;4.416;2023-07-31T04:29:18;11.48;;;5.97;;
19879;SDS011;10102;50.828;4.416;2023-07-31T04:31:44;14.13;;;5.65;;
19879;SDS011;10102;50.828;4.416;2023-07-31T04:34:10;17.58;;;5.78;;
19879;SDS011;10102;50.828;4.416;2023-07-31T04:36:39;16.42;;;6.57;;
19879;SDS011;10102;50.828;4.416;2023-07-31T04:39:05;19.83;;;5.60;;
19879;SDS011;10102;50.828;4.416;2023-07-31T04:41:31;11.70;;;5.65;;
19879;SDS011;10102;50.828;4.416;2023-07-31T04:43:56;13.15;;;5.32;;
19879;SDS011;10102;50.828;4.416;2023-07-31T04:46:22;14.18;;;5.40;;
19879;SDS011;10102;50.828;4.416;2023-07-31T04:48:48;10.60;;;5.63;;
19879;SDS011;10102;50.828;4.416;2023-07-31T04:51:13;15.05;;;5.45;;
19879;SDS011;10102;50.828;4.416;2023-07-31T04:53:39;15.00;;;5.80;;
19879;SDS011;10102;50.828;4.416;2023-07-31T04:56:04;11.95;;;5.57;;
19879;SDS011;10102;50.828;4.416;2023-07-31T04:58:30;10.48;;;5.72;;
19879;SDS011;10102;50.828;4.416;2023-07-31T05:00:56;16.25;;;6.22;;
19879;SDS011;10102;50.828;4.416;2023-07-31T05:03:22;10.45;;;5.40;;
19879;SDS011;10102;50.828;4.416;2023-07-31T05:05:47;12.45;;;5.20;;
19879;SDS011;10102;50.828;4.416;2023-07-31T05:08:13;14.23;;;4.93;;
19879;SDS011;10102;50.828;4.416;2023-07-31T05:10:39;9.80;;;5.05;;
19879;SDS011;10102;50.828;4.416;2023-07-31T05:13:04;18.77;;;5.68;;
19879;SDS011;10102;50.828;4.416;2023-07-31T05:15:30;10.73;;;4.63;;
19879;SDS011;10102;50.828;4.416;2023-07-31T05:17:56;11.80;;;4.68;;
19879;SDS011;10102;50.828;4.416;2023-07-31T05:20:22;15.35;;;4.68;;
19879;SDS011;10102;50.828;4.416;2023-07-31T05:22:48;13.10;;;5.13;;
19879;SDS011;10102;50.828;4.416;2023-07-31T05:25:13;9.23;;;5.13;;
19879;SDS011;10102;50.828;4.416;2023-07-31T05:27:39;14.98;;;5.40;;
19879;SDS011;10102;50.828;4.416;2023-07-31T05:30:05;10.50;;;4.43;;
19879;SDS011;10102;50.828;4.416;2023-07-31T05:32:31;13.20;;;5.20;;
19879;SDS011;10102;50.828;4.416;2023-07-31T05:34:57;13.00;;;5.05;;
19879;SDS011;10102;50.828;4.416;2023-07-31T05:37:23;20.55;;;5.25;;
19879;SDS011;10102;50.828;4.416;2023-07-31T05:39:49;11.27;;;5.50;;
19879;SDS011;10102;50.828;4.416;2023-07-31T05:42:15;11.38;;;4.68;;
19879;SDS011;10102;50.828;4.416;2023-07-31T05:44:40;8.75;;;4.45;;
19879;SDS011;10102;50.828;4.416;2023-07-31T05:47:06;12.82;;;5.47;;
19879;SDS011;10102;50.828;4.416;2023-07-31T05:49:31;10.40;;;4.90;;
19879;SDS011;10102;50.828;4.416;2023-07-31T05:51:57;10.77;;;4.60;;
19879;SDS011;10102;50.828;4.416;2023-07-31T05:54:24;9.25;;;4.55;;
19879;SDS011;10102;50.828;4.416;2023-07-31T05:56:50;9.95;;;4.80;;
19879;SDS011;10102;50.828;4.416;2023-07-31T05:59:15;12.77;;;5.15;;
19879;SDS011;10102;50.828;4.416;2023-07-31T06:01:41;13.43;;;5.20;;
19879;SDS011;10102;50.828;4.416;2023-07-31T06:04:07;9.40;;;4.43;;
19879;SDS011;10102;50.828;4.416;2023-07-31T06:06:33;9.07;;;5.15;;
19879;SDS011;10102;50.828;4.416;2023-07-31T06:08:59;16.00;;;5.45;;
19879;SDS011;10102;50.828;4.416;2023-07-31T06:11:25;11.13;;;4.80;;
19879;SDS011;10102;50.828;4.416;2023-07-31T06:13:51;12.57;;;4.28;;
19879;SDS011;10102;50.828;4.416;2023-07-31T06:16:17;13.40;;;4.82;;
19879;SDS011;10102;50.828;4.416;2023-07-31T06:18:43;8.98;;;4.68;;
19879;SDS011;10102;50.828;4.416;2023-07-31T06:21:09;8.75;;;4.40;;
19879;SDS011;10102;50.828;4.416;2023-07-31T06:23:36;13.98;;;4.82;;
19879;SDS011;10102;50.828;4.416;2023-07-31T06:26:02;9.60;;;4.70;;
19879;SDS011;10102;50.828;4.416;2023-07-31T06:28:28;14.60;;;4.80;;
19879;SDS011;10102;50.828;4.416;2023-07-31T06:30:54;11.23;;;4.57;;
19879;SDS011;10102;50.828;4.416;2023-07-31T06:33:20;9.05;;;3.97;;
19879;SDS011;10102;50.828;4.416;2023-07-31T06:35:46;8.40;;;4.10;;
19879;SDS011;10102;50.828;4.416;2023-07-31T06:38:12;8.02;;;4.03;;
19879;SDS011;10102;50.828;4.416;2023-07-31T06:40:38;12.65;;;4.20;;
19879;SDS011;10102;50.828;4.416;2023-07-31T06:43:03;8.20;;;3.85;;
19879;SDS011;10102;50.828;4.416;2023-07-31T06:45:36;11.27;;;4.05;;
19879;SDS011;10102;50.828;4.416;2023-07-31T06:48:03;7.60;;;3.55;;
19879;SDS011;10102;50.828;4.416;2023-07-31T06:50:29;11.77;;;3.97;;
19879;SDS011;10102;50.828;4.416;2023-07-31T06:52:56;8.00;;;3.85;;
19879;SDS011;10102;50.828;4.416;2023-07-31T06:55:22;8.10;;;3.78;;
19879;SDS011;10102;50.828;4.416;2023-07-31T06:57:49;11.30;;;3.72;;
19879;SDS011;10102;50.828;4.416;2023-07-31T07:00:16;9.68;;;4.10;;
19879;SDS011;10102;50.828;4.416;2023-07-31T07:02:42;7.13;;;3.03;;
19879;SDS011;10102;50.828;4.416;2023-07-31T07:05:09;11.27;;;4.03;;
19879;SDS011;10102;50.828;4.416;2023-07-31T07:07:35;9.07;;;3.70;;
19879;SDS011;10102;50.828;4.416;2023-07-31T07:10:01;7.88;;;3.70;;
19879;SDS011;10102;50.828;4.416;2023-07-31T07:12:29;7.53;;;3.10;;
19879;SDS011;10102;50.828;4.416;2023-07-31T07:14:55;9.63;;;3.25;;
19879;SDS011;10102;50.828;4.416;2023-07-31T07:17:22;7.50;;;3.30;;
19879;SDS011;10102;50.828;4.416;2023-07-31T07:19:48;9.20;;;3.25;;
19879;SDS011;10102;50.828;4.416;2023-07-31T07:22:14;7.13;;;3.22;;
19879;SDS011;10102;50.828;4.416;2023-07-31T07:24:40;6.28;;;3.53;;
19879;SDS011;10102;50.828;4.416;2023-07-31T07:27:06;14.10;;;3.90;;
19879;SDS011;10102;50.828;4.416;2023-07-31T07:29:33;6.75;;;3.28;;
19879;SDS011;10102;50.828;4.416;2023-07-31T07:31:59;7.20;;;3.60;;
19879;SDS011;10102;50.828;4.416;2023-07-31T07:34:28;7.85;;;3.13;;
19879;SDS011;10102;50.828;4.416;2023-07-31T07:36:54;7.97;;;3.63;;
19879;SDS011;10102;50.828;4.416;2023-07-31T07:39:20;8.50;;;3.50;;
19879;SDS011;10102;50.828;4.416;2023-07-31T07:41:46;11.93;;;3.97;;
19879;SDS011;10102;50.828;4.416;2023-07-31T07:44:12;10.85;;;3.83;;
19879;SDS011;10102;50.828;4.416;2023-07-31T07:46:39;10.25;;;3.67;;
19879;SDS011;10102;50.828;4.416;2023-07-31T07:49:05;9.65;;;4.22;;
19879;SDS011;10102;50.828;4.416;2023-07-31T07:51:31;8.40;;;4.65;;
19879;SDS011;10102;50.828;4.416;2023-07-31T07:54:00;9.75;;;4.72;;
19879;SDS011;10102;50.828;4.416;2023-07-31T07:56:26;10.05;;;4.40;;
19879;SDS011;10102;50.828;4.416;2023-07-31T07:58:52;8.18;;;3.95;;
19879;SDS011;10102;50.828;4.416;2023-07-31T08:01:18;8.95;;;4.70;;
19879;SDS011;10102;50.828;4.416;2023-07-31T08:03:44;9.38;;;4.20;;
19879;SDS011;10102;50.828;4.416;2023-07-31T08:06:12;9.80;;;4.05;;
19879;SDS011;10102;50.828;4.416;2023-07-31T08:08:39;8.48;;;4.18;;
19879;SDS011;10102;50.828;4.416;2023-07-31T08:11:04;8.88;;;3.80;;
19879;SDS011;10102;50.828;4.416;2023-07-31T08:13:30;10.13;;;3.28;;
19879;SDS011;10102;50.828;4.416;2023-07-31T08:15:56;6.63;;;3.50;;
19879;SDS011;10102;50.828;4.416;2023-07-31T08:18:22;5.38;;;2.88;;
19879;SDS011;10102;50.828;4.416;2023-07-31T08:20:47;7.13;;;2.70;;
19879;SDS011;10102;50.828;4.416;2023-07-31T08:23:14;5.45;;;2.85;;
19879;SDS011;10102;50.828;4.416;2023-07-31T08:25:39;6.28;;;3.13;;
19879;SDS011;10102;50.828;4.416;2023-07-31T08:28:06;5.95;;;2.42;;
19879;SDS011;10102;50.828;4.416;2023-07-31T08:30:32;9.43;;;3.25;;
19879;SDS011;10102;50.828;4.416;2023-07-31T08:33:00;8.48;;;3.45;;
19879;SDS011;10102;50.828;4.416;2023-07-31T08:35:26;6.63;;;2.80;;
19879;SDS011;10102;50.828;4.416;2023-07-31T08:37:55;4.95;;;2.65;;
19879;SDS011;10102;50.828;4.416;2023-07-31T08:40:21;11.75;;;3.63;;
19879;SDS011;10102;50.828;4.416;2023-07-31T08:42:47;11.25;;;3.13;;
19879;SDS011;10102;50.828;4.416;2023-07-31T08:45:16;6.90;;;3.25;;
19879;SDS011;10102;50.828;4.416;2023-07-31T08:47:47;6.60;;;3.38;;
19879;SDS011;10102;50.828;4.416;2023-07-31T08:50:14;7.00;;;2.67;;
19879;SDS011;10102;50.828;4.416;2023-07-31T08:52:41;7.35;;;2.95;;
19879;SDS011;10102;50.828;4.416;2023-07-31T08:55:07;9.45;;;3.25;;
19879;SDS011;10102;50.828;4.416;2023-07-31T08:57:35;9.35;;;3.13;;
19879;SDS011;10102;50.828;4.416;2023-07-31T09:00:03;7.93;;;3.47;;
19879;SDS011;10102;50.828;4.416;2023-07-31T09:05:21;7.88;;;3.22;;
19879;SDS011;10102;50.828;4.416;2023-07-31T09:07:47;12.20;;;3.33;;
19879;SDS011;10102;50.828;4.416;2023-07-31T09:10:14;8.27;;;3.17;;
19879;SDS011;10102;50.828;4.416;2023-07-31T09:12:40;6.45;;;3.15;;
19879;SDS011;10102;50.828;4.416;2023-07-31T09:15:06;7.75;;;3.40;;
19879;SDS011;10102;50.828;4.416;2023-07-31T09:17:34;5.28;;;3.08;;
19879;SDS011;10102;50.828;4.416;2023-07-31T09:20:13;7.40;;;3.53;;
19879;SDS011;10102;50.828;4.416;2023-07-31T09:22:38;7.53;;;3.30;;
19879;SDS011;10102;50.828;4.416;2023-07-31T09:25:17;6.55;;;3.72;;
19879;SDS011;10102;50.828;4.416;2023-07-31T09:27:48;8.10;;;3.30;;
19879;SDS011;10102;50.828;4.416;2023-07-31T09:30:15;10.43;;;3.75;;
19879;SDS011;10102;50.828;4.416;2023-07-31T09:32:42;11.25;;;3.85;;
19879;SDS011;10102;50.828;4.416;2023-07-31T09:35:18;12.43;;;3.88;;
19879;SDS011;10102;50.828;4.416;2023-07-31T09:37:49;5.03;;;2.83;;
19879;SDS011;10102;50.828;4.416;2023-07-31T09:40:28;5.18;;;3.55;;
19879;SDS011;10102;50.828;4.416;2023-07-31T09:42:58;8.57;;;4.30;;
19879;SDS011;10102;50.828;4.416;2023-07-31T09:45:28;8.52;;;3.45;;
19879;SDS011;10102;50.828;4.416;2023-07-31T09:47:55;8.80;;;3.58;;
19879;SDS011;10102;50.828;4.416;2023-07-31T09:50:22;8.30;;;3.85;;
19879;SDS011;10102;50.828;4.416;2023-07-31T09:52:51;12.70;;;4.43;;
19879;SDS011;10102;50.828;4.416;2023-07-31T09:55:17;7.70;;;4.15;;
19879;SDS011;10102;50.828;4.416;2023-07-31T09:57:45;9.10;;;4.13;;
19879;SDS011;10102;50.828;4.416;2023-07-31T10:00:12;10.23;;;4.30;;
19879;SDS011;10102;50.828;4.416;2023-07-31T10:02:40;13.63;;;4.35;;
19879;SDS011;10102;50.828;4.416;2023-07-31T10:05:06;16.88;;;5.03;;
19879;SDS011;10102;50.828;4.416;2023-07-31T10:07:37;9.75;;;4.82;;
19879;SDS011;10102;50.828;4.416;2023-07-31T10:10:07;9.10;;;4.38;;
19879;SDS011;10102;50.828;4.416;2023-07-31T10:12:33;12.35;;;4.50;;
19879;SDS011;10102;50.828;4.416;2023-07-31T10:15:00;9.40;;;4.25;;
19879;SDS011;10102;50.828;4.416;2023-07-31T10:17:26;12.50;;;4.93;;
19879;SDS011;10102;50.828;4.416;2023-07-31T10:19:53;13.20;;;5.10;;
19879;SDS011;10102;50.828;4.416;2023-07-31T10:22:21;12.45;;;4.15;;
19879;SDS011;10102;50.828;4.416;2023-07-31T10:24:47;14.10;;;4.70;;
19879;SDS011;10102;50.828;4.416;2023-07-31T10:27:14;13.23;;;4.40;;
19879;SDS011;10102;50.828;4.416;2023-07-31T10:29:39;14.02;;;4.68;;
19879;SDS011;10102;50.828;4.416;2023-07-31T10:32:08;13.05;;;4.43;;
19879;SDS011;10102;50.828;4.416;2023-07-31T10:34:37;11.00;;;4.82;;
19879;SDS011;10102;50.828;4.416;2023-07-31T10:42:38;15.93;;;4.57;;
19879;SDS011;10102;50.828;4.416;2023-07-31T10:45:13;13.15;;;4.75;;
19879;SDS011;10102;50.828;4.416;2023-07-31T10:47:48;7.68;;;4.28;;
19879;SDS011;10102;50.828;4.416;2023-07-31T10:50:17;11.02;;;4.68;;
19879;SDS011;10102;50.828;4.416;2023-07-31T10:52:50;8.27;;;4.55;;
19879;SDS011;10102;50.828;4.416;2023-07-31T10:57:49;9.57;;;4.72;;
19879;SDS011;10102;50.828;4.416;2023-07-31T11:00:19;9.80;;;4.55;;
19879;SDS011;10102;50.828;4.416;2023-07-31T11:03:00;9.75;;;4.07;;
19879;SDS011;10102;50.828;4.416;2023-07-31T11:06:00;12.18;;;4.45;;
19879;SDS011;10102;50.828;4.416;2023-07-31T11:08:22;11.82;;;4.53;;
19879;SDS011;10102;50.828;4.416;2023-07-31T11:13:31;13.98;;;4.85;;
19879;SDS011;10102;50.828;4.416;2023-07-31T11:15:59;12.05;;;4.50;;
19879;SDS011;10102;50.828;4.416;2023-07-31T11:18:26;8.68;;;5.00;;
19879;SDS011;10102;50.828;4.416;2023-07-31T11:20:52;11.63;;;4.97;;
19879;SDS011;10102;50.828;4.416;2023-07-31T11:23:18;11.25;;;4.38;;
19879;SDS011;10102;50.828;4.416;2023-07-31T11:25:45;11.35;;;4.55;;
19879;SDS011;10102;50.828;4.416;2023-07-31T11:28:11;13.52;;;5.35;;
19879;SDS011;10102;50.828;4.416;2023-07-31T11:30:39;10.52;;;4.22;;
19879;SDS011;10102;50.828;4.416;2023-07-31T11:33:06;13.80;;;5.03;;
19879;SDS011;10102;50.828;4.416;2023-07-31T11:35:33;9.73;;;3.95;;
19879;SDS011;10102;50.828;4.416;2023-07-31T11:38:00;9.25;;;4.47;;
19879;SDS011;10102;50.828;4.416;2023-07-31T11:40:26;12.00;;;4.95;;
19879;SDS011;10102;50.828;4.416;2023-07-31T11:42:56;10.52;;;4.38;;
19879;SDS011;10102;50.828;4.416;2023-07-31T11:45:28;7.13;;;4.10;;
19879;SDS011;10102;50.828;4.416;2023-07-31T11:47:55;8.85;;;4.60;;
19879;SDS011;10102;50.828;4.416;2023-07-31T11:50:22;9.60;;;4.97;;
19879;SDS011;10102;50.828;4.416;2023-07-31T11:52:52;9.15;;;4.28;;
19879;SDS011;10102;50.828;4.416;2023-07-31T11:55:25;13.32;;;4.70;;
19879;SDS011;10102;50.828;4.416;2023-07-31T11:57:52;9.50;;;4.00;;
19879;SDS011;10102;50.828;4.416;2023-07-31T12:00:18;16.30;;;5.20;;
19879;SDS011;10102;50.828;4.416;2023-07-31T12:02:45;11.93;;;4.53;;
19879;SDS011;10102;50.828;4.416;2023-07-31T12:05:11;9.25;;;4.15;;
19879;SDS011;10102;50.828;4.416;2023-07-31T12:07:49;10.18;;;4.43;;
19879;SDS011;10102;50.828;4.416;2023-07-31T12:10:29;13.02;;;4.45;;
19879;SDS011;10102;50.828;4.416;2023-07-31T12:13:03;10.82;;;4.50;;
19879;SDS011;10102;50.828;4.416;2023-07-31T12:15:33;8.68;;;3.97;;
19879;SDS011;10102;50.828;4.416;2023-07-31T12:18:10;12.52;;;4.50;;
19879;SDS011;10102;50.828;4.416;2023-07-31T12:20:45;9.35;;;4.38;;
19879;SDS011;10102;50.828;4.416;2023-07-31T12:23:37;9.55;;;4.13;;
19879;SDS011;10102;50.828;4.416;2023-07-31T12:26:10;8.18;;;4.53;;
19879;SDS011;10102;50.828;4.416;2023-07-31T12:28:47;9.13;;;3.72;;
19879;SDS011;10102;50.828;4.416;2023-07-31T12:31:15;11.63;;;4.85;;
19879;SDS011;10102;50.828;4.416;2023-07-31T12:33:44;10.23;;;4.97;;
19879;SDS011;10102;50.828;4.416;2023-07-31T12:36:12;10.63;;;4.07;;
19879;SDS011;10102;50.828;4.416;2023-07-31T12:38:39;7.65;;;4.22;;
19879;SDS011;10102;50.828;4.416;2023-07-31T12:41:05;12.32;;;4.45;;
19879;SDS011;10102;50.828;4.416;2023-07-31T12:43:32;12.77;;;4.28;;
19879;SDS011;10102;50.828;4.416;2023-07-31T12:46:00;10.90;;;5.38;;
19879;SDS011;10102;50.828;4.416;2023-07-31T12:48:26;8.90;;;3.95;;
19879;SDS011;10102;50.828;4.416;2023-07-31T12:50:52;10.73;;;4.18;;
19879;SDS011;10102;50.828;4.416;2023-07-31T12:53:17;6.25;;;3.67;;
19879;SDS011;10102;50.828;4.416;2023-07-31T12:55:43;8.75;;;4.32;;
19879;SDS011;10102;50.828;4.416;2023-07-31T12:58:09;8.38;;;4.18;;
19879;SDS011;10102;50.828;4.416;2023-07-31T13:00:35;9.85;;;4.10;;
19879;SDS011;10102;50.828;4.416;2023-07-31T13:03:00;10.77;;;4.28;;
19879;SDS011;10102;50.828;4.416;2023-07-31T13:05:27;14.18;;;4.80;;
19879;SDS011;10102;50.828;4.416;2023-07-31T13:07:53;9.68;;;4.00;;
19879;SDS011;10102;50.828;4.416;2023-07-31T13:10:19;11.48;;;4.53;;
19879;SDS011;10102;50.828;4.416;2023-07-31T13:12:45;7.45;;;4.00;;
19879;SDS011;10102;50.828;4.416;2023-07-31T13:15:11;15.00;;;4.32;;
19879;SDS011;10102;50.828;4.416;2023-07-31T13:17:37;8.32;;;4.28;;
19879;SDS011;10102;50.828;4.416;2023-07-31T13:20:03;7.88;;;3.83;;
19879;SDS011;10102;50.828;4.416;2023-07-31T13:22:29;11.52;;;3.90;;
19879;SDS011;10102;50.828;4.416;2023-07-31T13:24:55;8.68;;;3.53;;
19879;SDS011;10102;50.828;4.416;2023-07-31T13:27:21;8.05;;;3.58;;
19879;SDS011;10102;50.828;4.416;2023-07-31T13:29:48;8.65;;;3.72;;
19879;SDS011;10102;50.828;4.416;2023-07-31T13:32:14;13.75;;;3.47;;
19879;SDS011;10102;50.828;4.416;2023-07-31T13:34:40;7.90;;;3.38;;
19879;SDS011;10102;50.828;4.416;2023-07-31T13:37:06;6.82;;;3.65;;
19879;SDS011;10102;50.828;4.416;2023-07-31T13:39:32;8.18;;;3.75;;
19879;SDS011;10102;50.828;4.416;2023-07-31T13:41:58;20.45;;;4.07;;
19879;SDS011;10102;50.828;4.416;2023-07-31T13:44:24;7.60;;;3.88;;
19879;SDS011;10102;50.828;4.416;2023-07-31T13:46:50;9.85;;;3.70;;
19879;SDS011;10102;50.828;4.416;2023-07-31T13:49:16;31.40;;;4.90;;
19879;SDS011;10102;50.828;4.416;2023-07-31T13:51:41;41.83;;;4.93;;
19879;SDS011;10102;50.828;4.416;2023-07-31T13:54:07;18.13;;;4.63;;
19879;SDS011;10102;50.828;4.416;2023-07-31T13:56:33;14.88;;;4.50;;
19879;SDS011;10102;50.828;4.416;2023-07-31T13:58:58;7.30;;;4.22;;
19879;SDS011;10102;50.828;4.416;2023-07-31T14:01:26;8.30;;;3.47;;
19879;SDS011;10102;50.828;4.416;2023-07-31T14:03:51;8.07;;;4.45;;
19879;SDS011;10102;50.828;4.416;2023-07-31T14:06:17;28.95;;;5.10;;
19879;SDS011;10102;50.828;4.416;2023-07-31T14:08:43;11.48;;;3.75;;
19879;SDS011;10102;50.828;4.416;2023-07-31T14:11:08;11.20;;;3.95;;
19879;SDS011;10102;50.828;4.416;2023-07-31T14:13:34;7.90;;;3.85;;
19879;SDS011;10102;50.828;4.416;2023-07-31T14:16:00;7.38;;;3.90;;
19879;SDS011;10102;50.828;4.416;2023-07-31T14:18:25;10.75;;;4.30;;
19879;SDS011;10102;50.828;4.416;2023-07-31T14:20:51;10.00;;;3.83;;
19879;SDS011;10102;50.828;4.416;2023-07-31T14:23:17;15.95;;;4.38;;
19879;SDS011;10102;50.828;4.416;2023-07-31T14:25:42;11.95;;;4.93;;
19879;SDS011;10102;50.828;4.416;2023-07-31T14:28:08;9.32;;;4.25;;
19879;SDS011;10102;50.828;4.416;2023-07-31T14:30:34;7.78;;;4.25;;
19879;SDS011;10102;50.828;4.416;2023-07-31T14:32:59;13.02;;;4.95;;
19879;SDS011;10102;50.828;4.416;2023-07-31T14:35:25;8.90;;;4.20;;
19879;SDS011;10102;50.828;4.416;2023-07-31T14:37:51;7.13;;;3.88;;
19879;SDS011;10102;50.828;4.416;2023-07-31T14:40:17;14.43;;;4.50;;
19879;SDS011;10102;50.828;4.416;2023-07-31T14:42:42;5.97;;;3.10;;
19879;SDS011;10102;50.828;4.416;2023-07-31T14:45:08;7.75;;;3.25;;
19879;SDS011;10102;50.828;4.416;2023-07-31T14:47:35;8.75;;;3.75;;
19879;SDS011;10102;50.828;4.416;2023-07-31T14:50:01;5.97;;;3.20;;
19879;SDS011;10102;50.828;4.416;2023-07-31T14:52:27;7.57;;;3.53;;
19879;SDS011;10102;50.828;4.416;2023-07-31T14:54:53;4.60;;;2.85;;
19879;SDS011;10102;50.828;4.416;2023-07-31T14:57:19;6.90;;;3.13;;
19879;SDS011;10102;50.828;4.416;2023-07-31T14:59:45;6.65;;;2.95;;
19879;SDS011;10102;50.828;4.416;2023-07-31T15:02:11;7.53;;;2.63;;
19879;SDS011;10102;50.828;4.416;2023-07-31T15:04:37;4.10;;;2.72;;
19879;SDS011;10102;50.828;4.416;2023-07-31T15:07:03;5.28;;;2.80;;
19879;SDS011;10102;50.828;4.416;2023-07-31T15:09:29;3.83;;;2.55;;